createdAt,value
2023-04-26T00:01:34.893Z,4.85
2023-04-26T00:04:02.536Z,4.84
2023-04-26T00:06:29.997Z,4.73
2023-04-26T00:08:57.282Z,4.71
2023-04-26T00:11:24.501Z,4.72
2023-04-26T00:13:52.254Z,4.69
2023-04-26T00:16:19.581Z,4.67
2023-04-26T00:18:46.878Z,4.68
2023-04-26T00:21:14.419Z,4.64
2023-04-26T00:23:41.772Z,4.61
2023-04-26T00:26:09.039Z,4.56
2023-04-26T00:28:36.392Z,4.57
2023-04-26T00:31:03.622Z,4.56
2023-04-26T00:33:30.916Z,4.50
2023-04-26T00:35:58.309Z,4.48
2023-04-26T00:38:25.554Z,4.43
2023-04-26T00:40:52.751Z,4.39
2023-04-26T00:43:20.039Z,4.33
2023-04-26T00:45:47.515Z,4.32
2023-04-26T00:48:16.400Z,4.32
2023-04-26T00:50:44.297Z,4.31
2023-04-26T00:53:12.916Z,4.37
2023-04-26T00:55:41.738Z,4.39
2023-04-26T00:58:09.568Z,4.39
2023-04-26T01:00:37.087Z,4.39
2023-04-26T01:03:04.661Z,4.37
2023-04-26T01:05:32.342Z,4.38
2023-04-26T01:08:00.450Z,4.37
2023-04-26T01:10:28.927Z,4.39
2023-04-26T01:12:57.289Z,4.42
2023-04-26T01:15:26.494Z,4.37
2023-04-26T01:17:54.044Z,4.25
2023-04-26T01:20:21.268Z,4.29
2023-04-26T01:22:48.566Z,4.25
2023-04-26T01:25:16.889Z,4.27
2023-04-26T01:27:44.300Z,4.22
2023-04-26T01:30:12.438Z,4.16
2023-04-26T01:32:39.757Z,4.17
2023-04-26T01:35:07.543Z,4.08
2023-04-26T01:37:34.833Z,4.06
2023-04-26T01:40:02.067Z,4.09
2023-04-26T01:42:29.339Z,4.06
2023-04-26T01:44:56.721Z,4.01
2023-04-26T01:47:24.359Z,3.95
2023-04-26T01:49:51.713Z,3.94
2023-04-26T01:52:18.954Z,3.93
2023-04-26T01:54:46.191Z,3.97
2023-04-26T01:57:13.426Z,3.94
2023-04-26T01:59:40.931Z,3.93
2023-04-26T02:02:08.374Z,3.91
2023-04-26T02:04:36.349Z,3.90
2023-04-26T02:07:03.606Z,3.74
2023-04-26T02:09:30.858Z,3.79
2023-04-26T02:11:58.127Z,3.85
2023-04-26T02:14:25.334Z,3.73
2023-04-26T02:16:52.600Z,3.70
2023-04-26T02:19:19.970Z,3.78
2023-04-26T02:21:58.503Z,3.87
2023-04-26T02:24:26.214Z,3.87
2023-04-26T02:26:53.512Z,3.87
2023-04-26T02:29:26.890Z,3.88
2023-04-26T02:31:58.623Z,3.89
2023-04-26T02:34:26.261Z,3.85
2023-04-26T02:36:53.520Z,3.87
2023-04-26T02:39:20.757Z,3.92
2023-04-26T02:41:47.983Z,3.93
2023-04-26T02:44:15.312Z,3.98
2023-04-26T02:46:42.773Z,3.99
2023-04-26T02:49:10.179Z,4.02
2023-04-26T02:51:37.779Z,3.99
2023-04-26T02:54:06.959Z,3.97
2023-04-26T02:56:34.508Z,3.98
2023-04-26T02:59:01.765Z,3.98
2023-04-26T03:01:29.075Z,4.01
2023-04-26T03:03:56.457Z,4.00
2023-04-26T03:06:23.883Z,4.03
2023-04-26T03:08:51.395Z,4.02
2023-04-26T03:11:18.785Z,4.03
2023-04-26T03:13:45.980Z,4.05
2023-04-26T03:16:13.447Z,4.02
2023-04-26T03:18:40.782Z,4.04
2023-04-26T03:21:08.091Z,4.04
2023-04-26T03:23:35.538Z,4.07
2023-04-26T03:26:02.997Z,4.06
2023-04-26T03:28:30.693Z,4.03
2023-04-26T03:30:59.675Z,4.00
2023-04-26T03:33:27.482Z,3.94
2023-04-26T03:35:54.719Z,3.95
2023-04-26T03:38:21.958Z,3.97
2023-04-26T03:40:49.478Z,3.93
2023-04-26T03:43:16.691Z,3.96
2023-04-26T03:45:48.065Z,3.96
2023-04-26T03:48:16.056Z,3.93
2023-04-26T03:50:43.716Z,3.90
2023-04-26T03:53:15.193Z,3.91
2023-04-26T03:55:42.571Z,3.91
2023-04-26T03:58:09.944Z,3.92
2023-04-26T04:00:41.381Z,3.92
2023-04-26T04:03:08.897Z,3.90
2023-04-26T04:05:36.729Z,3.86
2023-04-26T04:08:04.898Z,3.87
2023-04-26T04:10:32.228Z,3.83
2023-04-26T04:12:59.679Z,3.85
2023-04-26T04:15:27.143Z,3.85
2023-04-26T04:17:54.669Z,3.86
2023-04-26T04:20:22.036Z,3.85
2023-04-26T04:22:49.349Z,3.79
2023-04-26T04:25:16.587Z,3.84
2023-04-26T04:27:43.891Z,3.90
2023-04-26T04:30:11.766Z,3.92
2023-04-26T04:32:39.007Z,3.93
2023-04-26T04:35:07.543Z,3.93
2023-04-26T04:37:34.893Z,3.97
2023-04-26T04:40:02.410Z,3.98
2023-04-26T04:42:29.686Z,3.99
2023-04-26T04:44:57.204Z,3.97
2023-04-26T04:47:24.520Z,4.00
2023-04-26T04:49:51.796Z,4.02
2023-04-26T04:52:19.270Z,4.00
2023-04-26T04:54:46.726Z,4.03
2023-04-26T04:57:14.263Z,4.04
2023-04-26T04:59:41.909Z,4.07
2023-04-26T05:02:09.243Z,4.01
2023-04-26T05:04:37.774Z,4.08
2023-04-26T05:07:05.448Z,4.10
2023-04-26T05:09:32.675Z,4.10
2023-04-26T05:11:59.955Z,4.13
2023-04-26T05:14:27.639Z,4.15
2023-04-26T05:16:55.023Z,4.14
2023-04-26T05:19:22.773Z,4.19
2023-04-26T05:21:50.031Z,4.17
2023-04-26T05:24:17.286Z,4.15
2023-04-26T05:26:44.600Z,4.20
2023-04-26T05:29:11.988Z,4.19
2023-04-26T05:31:39.269Z,4.24
2023-04-26T05:34:06.526Z,4.29
2023-04-26T05:36:33.858Z,4.32
2023-04-26T05:39:01.131Z,4.37
2023-04-26T05:41:28.386Z,4.37
2023-04-26T05:43:55.705Z,4.43
2023-04-26T05:46:23.352Z,4.48
2023-04-26T05:48:50.706Z,4.49
2023-04-26T05:51:17.890Z,4.56
2023-04-26T05:53:45.124Z,4.63
2023-04-26T05:56:12.374Z,4.68
2023-04-26T05:58:39.727Z,4.72
2023-04-26T06:01:06.982Z,4.77
2023-04-26T06:03:34.629Z,4.88
2023-04-26T06:06:02.313Z,4.93
2023-04-26T06:08:29.743Z,5.05
2023-04-26T06:10:56.985Z,5.11
2023-04-26T06:13:24.365Z,5.25
2023-04-26T06:15:54.670Z,5.34
2023-04-26T06:18:22.073Z,5.38
2023-04-26T06:20:49.414Z,5.52
2023-04-26T06:25:44.192Z,5.74
2023-04-26T06:28:13.071Z,5.88
2023-04-26T06:30:40.434Z,5.92
2023-04-26T06:33:07.735Z,5.97
2023-04-26T06:35:43.119Z,6.14
2023-04-26T06:38:10.420Z,6.24
2023-04-26T06:40:37.638Z,6.33
2023-04-26T06:43:05.104Z,6.44
2023-04-26T06:45:32.650Z,6.55
2023-04-26T06:47:59.993Z,6.60
2023-04-26T06:50:27.864Z,6.68
2023-04-26T06:52:55.440Z,6.64
2023-04-26T06:55:22.931Z,6.78
2023-04-26T06:57:50.788Z,6.84
2023-04-26T07:00:18.228Z,6.99
2023-04-26T07:02:46.119Z,6.98
2023-04-26T07:05:13.878Z,7.12
2023-04-26T07:07:41.357Z,7.11
2023-04-26T07:10:10.448Z,7.07
2023-04-26T07:12:37.756Z,7.21
2023-04-26T07:15:05.866Z,7.17
2023-04-26T07:17:33.462Z,7.12
2023-04-26T07:20:00.895Z,7.28
2023-04-26T07:22:28.645Z,7.30
2023-04-26T07:24:55.997Z,7.37
2023-04-26T07:27:24.153Z,7.35
2023-04-26T07:29:54.985Z,7.43
2023-04-26T07:32:22.672Z,7.52
2023-04-26T07:34:49.959Z,7.53
2023-04-26T07:37:17.270Z,7.60
2023-04-26T07:39:44.690Z,7.64
2023-04-26T07:42:12.191Z,7.74
2023-04-26T07:44:39.434Z,7.88
2023-04-26T07:47:13.015Z,7.93
2023-04-26T07:49:40.685Z,8.01
2023-04-26T07:52:09.697Z,8.13
2023-04-26T07:54:37.069Z,8.25
2023-04-26T07:57:04.518Z,8.33
2023-04-26T07:59:32.415Z,8.45
2023-04-26T08:01:59.638Z,8.41
2023-04-26T08:04:34.785Z,8.35
2023-04-26T08:07:02.406Z,8.43
2023-04-26T08:09:30.330Z,8.39
2023-04-26T08:11:58.264Z,8.47
2023-04-26T08:14:25.542Z,8.51
2023-04-26T08:16:52.870Z,8.49
2023-04-26T08:19:20.163Z,8.45
2023-04-26T08:21:47.556Z,8.49
2023-04-26T08:24:14.871Z,8.67
2023-04-26T08:26:42.322Z,8.63
2023-04-26T08:29:10.177Z,8.71
2023-04-26T08:31:37.483Z,8.83
2023-04-26T08:34:04.772Z,8.97
2023-04-26T08:36:35.919Z,9.03
2023-04-26T08:39:03.830Z,9.02
2023-04-26T08:41:37.795Z,9.18
2023-04-26T08:44:09.162Z,9.36
2023-04-26T08:47:36.881Z,9.32
2023-04-26T08:50:05.915Z,9.23
2023-04-26T08:52:35.349Z,9.32
2023-04-26T08:55:05.205Z,9.36
2023-04-26T08:57:33.170Z,9.41
2023-04-26T09:00:03.299Z,9.45
2023-04-26T09:02:31.148Z,9.53
2023-04-26T09:04:58.722Z,9.65
2023-04-26T09:07:51.104Z,9.76
2023-04-26T09:10:22.262Z,9.77
2023-04-26T09:12:53.917Z,9.86
2023-04-26T09:15:23.270Z,9.73
2023-04-26T09:17:51.171Z,9.82
2023-04-26T09:20:31.414Z,9.87
2023-04-26T09:23:07.569Z,10.01
2023-04-26T09:25:36.029Z,9.98
2023-04-26T09:28:18.915Z,9.96
2023-04-26T09:30:46.824Z,9.79
2023-04-26T09:33:14.387Z,9.89
2023-04-26T09:35:44.558Z,9.98
2023-04-26T09:38:15.269Z,10.12
2023-04-26T09:40:45.977Z,10.14
2023-04-26T09:43:18.872Z,10.28
2023-04-26T09:45:50.722Z,10.36
2023-04-26T09:48:34.179Z,10.45
2023-04-26T09:51:04.213Z,10.50
2023-04-26T09:53:42.212Z,10.57
2023-04-26T09:56:20.890Z,10.58
2023-04-26T09:58:48.077Z,10.63
2023-04-26T10:01:17.364Z,10.72
2023-04-26T10:03:45.610Z,10.68
2023-04-26T10:06:13.824Z,10.84
2023-04-26T10:08:41.575Z,10.94
2023-04-26T10:11:09.610Z,10.94
2023-04-26T10:13:37.886Z,11.02
2023-04-26T10:16:06.315Z,10.97
2023-04-26T10:18:34.238Z,11.13
2023-04-26T10:21:19.794Z,11.14
2023-04-26T10:23:49.710Z,11.27
2023-04-26T10:26:55.625Z,11.23
2023-04-26T10:29:25.525Z,11.15
2023-04-26T10:32:02.378Z,11.27
2023-04-26T10:34:31.943Z,11.27
2023-04-26T10:37:18.097Z,11.32
2023-04-26T10:39:47.430Z,11.47
2023-04-26T10:42:29.353Z,11.58
2023-04-26T10:44:58.867Z,11.75
2023-04-26T10:47:34.937Z,11.86
2023-04-26T10:50:06.313Z,12.02
2023-04-26T10:52:34.919Z,12.23
2023-04-26T10:55:02.535Z,12.26
2023-04-26T10:57:52.973Z,12.36
2023-04-26T11:00:28.565Z,12.62
2023-04-26T11:03:03.689Z,12.80
2023-04-26T11:05:51.802Z,12.98
2023-04-26T11:08:31.371Z,13.36
2023-04-26T11:11:12.249Z,13.61
2023-04-26T11:13:42.437Z,13.66
2023-04-26T11:16:12.475Z,13.58
2023-04-26T11:18:47.790Z,13.47
2023-04-26T11:21:15.132Z,13.39
2023-04-26T11:23:42.436Z,13.63
2023-04-26T11:26:09.881Z,13.97
2023-04-26T11:28:42.227Z,14.20
2023-04-26T11:31:09.956Z,14.55
2023-04-26T11:33:37.678Z,14.85
2023-04-26T11:36:05.639Z,14.75
2023-04-26T11:38:33.183Z,14.54
2023-04-26T11:41:04.553Z,14.81
2023-04-26T11:43:39.785Z,15.15
2023-04-26T11:46:09.192Z,15.39
2023-04-26T11:48:38.550Z,15.74
2023-04-26T11:51:08.252Z,16.04
2023-04-26T11:53:44.828Z,15.91
2023-04-26T11:56:17.234Z,15.64
2023-04-26T11:58:48.505Z,15.87
2023-04-26T12:01:28.133Z,15.94
2023-04-26T12:03:57.922Z,16.02
2023-04-26T12:06:41.777Z,15.96
2023-04-26T12:09:09.851Z,16.04
2023-04-26T12:11:38.038Z,16.10
2023-04-26T12:14:05.949Z,16.12
2023-04-26T12:16:36.548Z,16.20
2023-04-26T12:19:08.109Z,16.38
2023-04-26T12:21:43.464Z,16.71
2023-04-26T12:24:24.383Z,16.99
2023-04-26T12:26:51.836Z,17.34
2023-04-26T12:29:19.523Z,17.44
2023-04-26T12:31:47.493Z,17.61
2023-04-26T12:34:14.857Z,17.61
2023-04-26T12:36:42.613Z,17.71
2023-04-26T12:39:11.757Z,17.88
2023-04-26T12:41:39.618Z,18.04
2023-04-26T12:44:08.459Z,17.93
2023-04-26T12:46:36.686Z,17.88
2023-04-26T12:49:04.997Z,17.76
2023-04-26T12:51:32.589Z,17.69
2023-04-26T12:53:59.891Z,17.74
2023-04-26T12:56:27.324Z,17.77
2023-04-26T12:58:54.881Z,17.89
2023-04-26T13:01:22.235Z,17.84
2023-04-26T13:03:49.826Z,17.97
2023-04-26T13:06:17.558Z,18.16
2023-04-26T13:08:44.901Z,18.17
2023-04-26T13:11:12.324Z,18.13
2023-04-26T13:13:43.641Z,18.10
2023-04-26T13:16:12.930Z,18.23
2023-04-26T13:18:41.322Z,18.13
2023-04-26T13:21:08.666Z,17.70
2023-04-26T13:23:36.175Z,17.19
2023-04-26T13:26:03.515Z,16.96
2023-04-26T13:28:30.799Z,17.08
2023-04-26T13:30:58.367Z,17.37
2023-04-26T13:33:25.929Z,17.54
2023-04-26T13:35:53.295Z,17.62
2023-04-26T13:38:20.567Z,17.80
2023-04-26T13:40:47.965Z,18.02
2023-04-26T13:43:15.222Z,18.18
2023-04-26T13:45:43.306Z,18.52
2023-04-26T13:48:10.625Z,18.70
2023-04-26T13:50:38.037Z,18.90
2023-04-26T13:53:05.511Z,18.97
2023-04-26T13:55:32.880Z,19.09
2023-04-26T13:58:00.147Z,19.21
2023-04-26T14:00:27.475Z,19.40
2023-04-26T14:02:55.046Z,19.51
2023-04-26T14:05:22.868Z,19.54
2023-04-26T14:07:50.232Z,19.23
2023-04-26T14:10:17.808Z,18.93
2023-04-26T14:12:45.114Z,18.84
2023-04-26T14:15:12.989Z,18.64
2023-04-26T14:17:40.336Z,18.70
2023-04-26T14:20:12.047Z,18.65
2023-04-26T14:22:39.373Z,18.35
2023-04-26T14:25:07.041Z,18.34
2023-04-26T14:27:35.621Z,18.28
2023-04-26T14:30:03.275Z,18.32
2023-04-26T14:32:30.510Z,18.24
2023-04-26T14:34:58.220Z,18.39
2023-04-26T14:37:25.527Z,18.31
2023-04-26T14:39:53.010Z,18.16
2023-04-26T14:42:20.349Z,17.91
2023-04-26T14:44:47.701Z,17.78
2023-04-26T14:47:15.024Z,17.74
2023-04-26T14:49:42.307Z,17.61
2023-04-26T14:52:09.626Z,17.80
2023-04-26T14:54:40.674Z,18.05
2023-04-26T14:57:08.486Z,18.16
2023-04-26T14:59:37.117Z,18.27
2023-04-26T15:02:04.549Z,18.63
2023-04-26T15:04:32.320Z,18.98
2023-04-26T15:06:59.943Z,19.12
2023-04-26T15:09:29.008Z,19.16
2023-04-26T15:11:57.661Z,19.10
2023-04-26T15:14:25.130Z,19.13
2023-04-26T15:16:52.511Z,19.00
2023-04-26T15:19:19.820Z,18.60
2023-04-26T15:21:49.256Z,18.58
2023-04-26T15:24:16.786Z,18.77
2023-04-26T15:26:44.101Z,18.64
2023-04-26T15:29:11.563Z,18.90
2023-04-26T15:31:38.995Z,18.99
2023-04-26T15:34:06.468Z,19.20
2023-04-26T15:36:33.738Z,19.27
2023-04-26T15:39:01.103Z,19.43
2023-04-26T15:41:28.555Z,19.76
2023-04-26T15:43:56.129Z,20.09
2023-04-26T15:46:23.541Z,20.23
2023-04-26T15:48:50.980Z,20.38
2023-04-26T15:51:20.401Z,20.43
2023-04-26T15:53:47.840Z,20.47
2023-04-26T15:56:16.864Z,20.42
2023-04-26T15:58:48.060Z,20.11
2023-04-26T16:01:17.180Z,20.00
2023-04-26T16:03:47.628Z,19.93
2023-04-26T16:06:15.446Z,19.93
2023-04-26T16:08:42.851Z,19.72
2023-04-26T16:11:10.240Z,19.36
2023-04-26T16:13:37.597Z,18.96
2023-04-26T16:16:08.512Z,18.56
2023-04-26T16:18:35.942Z,18.36
2023-04-26T16:21:07.444Z,18.13
2023-04-26T16:23:34.804Z,17.77
2023-04-26T16:26:03.138Z,17.58
2023-04-26T16:28:30.713Z,17.38
2023-04-26T16:30:58.390Z,17.29
2023-04-26T16:33:26.148Z,17.16
2023-04-26T16:35:55.012Z,16.97
2023-04-26T16:38:23.077Z,16.75
2023-04-26T16:40:59.856Z,16.55
2023-04-26T16:43:31.989Z,16.36
2023-04-26T16:46:07.381Z,16.29
2023-04-26T16:48:37.978Z,16.17
2023-04-26T16:51:08.152Z,16.01
2023-04-26T16:53:41.279Z,15.86
2023-04-26T16:56:08.857Z,15.73
2023-04-26T16:58:36.292Z,15.50
2023-04-26T17:01:03.767Z,15.34
2023-04-26T17:03:31.306Z,15.20
2023-04-26T17:06:01.885Z,15.21
2023-04-26T17:08:30.520Z,15.11
2023-04-26T17:10:57.920Z,15.05
2023-04-26T17:13:25.150Z,14.97
2023-04-26T17:15:54.626Z,14.75
2023-04-26T17:18:21.922Z,14.62
2023-04-26T17:20:49.841Z,14.59
2023-04-26T17:23:17.313Z,14.54
2023-04-26T17:25:45.041Z,14.51
2023-04-26T17:28:12.403Z,14.47
2023-04-26T17:30:43.151Z,14.46
2023-04-26T17:33:10.684Z,14.39
2023-04-26T17:35:38.376Z,14.34
2023-04-26T17:38:06.928Z,14.27
2023-04-26T17:40:34.382Z,14.23
2023-04-26T17:43:02.122Z,14.22
2023-04-26T17:45:30.592Z,14.13
2023-04-26T17:47:58.262Z,14.01
2023-04-26T17:50:25.508Z,13.76
2023-04-26T17:52:52.915Z,13.76
2023-04-26T17:55:20.305Z,13.78
2023-04-26T17:57:47.768Z,13.73
2023-04-26T18:00:15.611Z,13.52
2023-04-26T18:02:48.899Z,13.36
2023-04-26T18:05:20.790Z,13.33
2023-04-26T18:07:50.817Z,13.24
2023-04-26T18:10:18.212Z,13.23
2023-04-26T18:12:45.633Z,13.24
2023-04-26T18:15:14.260Z,13.25
2023-04-26T18:17:42.151Z,13.12
2023-04-26T18:20:10.162Z,12.95
2023-04-26T18:22:37.411Z,12.95
2023-04-26T18:25:08.636Z,12.87
2023-04-26T18:27:35.907Z,12.82
2023-04-26T18:30:04.701Z,12.87
2023-04-26T18:32:32.368Z,12.84
2023-04-26T18:35:00.955Z,12.73
2023-04-26T18:37:28.570Z,12.73
2023-04-26T18:39:55.882Z,12.69
2023-04-26T18:42:23.128Z,12.57
2023-04-26T18:44:50.586Z,12.62
2023-04-26T18:47:17.919Z,12.54
2023-04-26T18:49:45.165Z,12.46
2023-04-26T18:52:12.525Z,12.43
2023-04-26T18:54:39.794Z,12.43
2023-04-26T18:57:07.070Z,12.36
2023-04-26T18:59:34.333Z,12.32
2023-04-26T19:02:01.775Z,12.35
2023-04-26T19:04:29.296Z,12.31
2023-04-26T19:06:56.939Z,12.29
2023-04-26T19:09:24.354Z,12.26
2023-04-26T19:11:51.624Z,12.22
2023-04-26T19:14:19.064Z,12.10
2023-04-26T19:16:46.570Z,12.07
2023-04-26T19:19:13.851Z,12.07
2023-04-26T19:21:41.104Z,11.98
2023-04-26T19:24:08.661Z,12.01
2023-04-26T19:26:37.845Z,11.96
2023-04-26T19:29:07.004Z,11.89
2023-04-26T19:31:34.876Z,11.88
2023-04-26T19:34:02.703Z,11.86
2023-04-26T19:36:30.220Z,11.85
2023-04-26T19:38:58.273Z,11.81
2023-04-26T19:41:28.264Z,11.81
2023-04-26T19:43:56.092Z,11.77
2023-04-26T19:46:23.887Z,11.72
2023-04-26T19:48:51.598Z,11.70
2023-04-26T19:51:19.227Z,11.65
2023-04-26T19:53:46.828Z,11.59
2023-04-26T19:56:14.549Z,11.57
2023-04-26T19:58:42.250Z,11.48
2023-04-26T20:01:10.249Z,11.39
2023-04-26T20:03:37.867Z,11.32
2023-04-26T20:06:05.754Z,11.31
2023-04-26T20:08:34.621Z,11.31
2023-04-26T20:11:04.822Z,11.26
2023-04-26T20:13:32.769Z,11.20
2023-04-26T20:16:00.184Z,11.15
2023-04-26T20:18:27.603Z,11.10
2023-04-26T20:20:54.960Z,11.11
2023-04-26T20:23:22.249Z,11.05
2023-04-26T20:25:51.308Z,11.01
2023-04-26T20:28:18.963Z,11.03
2023-04-26T20:30:46.565Z,11.03
2023-04-26T20:33:14.023Z,10.95
2023-04-26T20:35:41.576Z,10.93
2023-04-26T20:38:09.252Z,10.88
2023-04-26T20:40:36.806Z,10.87
2023-04-26T20:43:04.569Z,10.83
2023-04-26T20:45:32.399Z,10.74
2023-04-26T20:48:00.133Z,10.67
2023-04-26T20:50:27.982Z,10.61
2023-04-26T20:52:55.719Z,10.58
2023-04-26T20:55:23.383Z,10.53
2023-04-26T20:57:51.070Z,10.48
2023-04-26T21:00:19.030Z,10.42
2023-04-26T21:02:46.765Z,10.34
2023-04-26T21:05:14.481Z,10.34
2023-04-26T21:07:42.171Z,10.27
2023-04-26T21:10:10.102Z,10.22
2023-04-26T21:12:37.513Z,10.16
2023-04-26T21:15:05.593Z,10.09
2023-04-26T21:17:32.917Z,10.00
2023-04-26T21:20:00.299Z,9.96
2023-04-26T21:22:27.723Z,9.92
2023-04-26T21:24:55.002Z,9.88
2023-04-26T21:27:22.411Z,9.87
2023-04-26T21:29:49.928Z,9.85
2023-04-26T21:32:17.515Z,9.83
2023-04-26T21:34:44.927Z,9.81
2023-04-26T21:37:12.592Z,9.73
2023-04-26T21:39:40.332Z,9.65
2023-04-26T21:42:07.985Z,9.59
2023-04-26T21:44:35.714Z,9.52
2023-04-26T21:47:03.467Z,9.47
2023-04-26T21:49:31.106Z,9.41
2023-04-26T21:51:58.692Z,9.37
2023-04-26T21:54:26.493Z,9.35
2023-04-26T21:56:54.119Z,9.34
2023-04-26T21:59:21.981Z,9.33
2023-04-26T22:01:49.711Z,9.28
2023-04-26T22:04:18.256Z,9.25
2023-04-26T22:06:46.097Z,9.27
2023-04-26T22:09:13.856Z,9.31
2023-04-26T22:11:41.655Z,9.33
2023-04-26T22:14:09.307Z,9.28
2023-04-26T22:16:36.994Z,9.27
2023-04-26T22:19:13.874Z,9.28
2023-04-26T22:21:41.947Z,9.27
2023-04-26T22:24:09.765Z,9.34
2023-04-26T22:26:37.395Z,9.30
2023-04-26T22:29:04.998Z,9.28
2023-04-26T22:31:32.604Z,9.24
2023-04-26T22:34:00.199Z,9.21
2023-04-26T22:36:27.894Z,9.19
2023-04-26T22:38:55.417Z,9.19
2023-04-26T22:41:23.042Z,9.18
2023-04-26T22:43:52.748Z,9.14
2023-04-26T22:46:20.936Z,9.17
2023-04-26T22:48:48.665Z,9.12
2023-04-26T22:51:16.361Z,9.11
2023-04-26T22:53:43.966Z,9.07
2023-04-26T22:56:11.785Z,9.08
2023-04-26T22:58:42.844Z,9.09
2023-04-26T23:01:10.788Z,9.06
2023-04-26T23:03:38.633Z,9.03
2023-04-26T23:06:06.745Z,8.97
2023-04-26T23:08:34.561Z,8.91
2023-04-26T23:11:06.398Z,8.87
2023-04-26T23:13:34.416Z,8.79
2023-04-26T23:16:02.717Z,8.77
2023-04-26T23:18:30.679Z,8.77
2023-04-26T23:20:58.307Z,8.78
2023-04-26T23:23:26.863Z,8.74
2023-04-26T23:25:54.421Z,8.67
2023-04-26T23:28:21.969Z,8.66
2023-04-26T23:30:49.830Z,8.63
2023-04-26T23:33:17.440Z,8.62
2023-04-26T23:35:45.039Z,8.65
2023-04-26T23:38:12.992Z,8.66
2023-04-26T23:40:40.648Z,8.57
2023-04-26T23:43:08.638Z,8.56
2023-04-26T23:45:36.658Z,8.61
2023-04-26T23:48:04.551Z,8.58
2023-04-26T23:50:32.267Z,8.62
2023-04-26T23:53:00.065Z,8.59
2023-04-26T23:55:27.788Z,8.68
2023-04-26T23:57:55.352Z,8.69
